sensor_id;sensor_type;location;lat;lon;timestamp;pressure;altitude;pressure_sealevel;temperature;humidity
53689;BME280;39583;54.682;30.662;2023-04-02T07:48:05;98593.22;;;9.62;100.00
53689;BME280;39583;54.682;30.662;2023-04-02T07:50:32;98589.03;;;9.66;100.00
53689;BME280;39583;54.682;30.662;2023-04-02T07:52:58;98591.59;;;9.61;100.00
53689;BME280;39583;54.682;30.662;2023-04-02T07:55:24;98591.94;;;9.53;100.00
53689;BME280;39583;54.682;30.662;2023-04-02T07:57:53;98607.34;;;9.45;100.00
53689;BME280;39583;54.682;30.662;2023-04-02T08:00:19;98602.47;;;9.42;100.00
53689;BME280;39583;54.682;30.662;2023-04-02T08:02:47;98609.34;;;9.50;100.00
53689;BME280;39583;54.682;30.662;2023-04-02T08:05:14;98598.13;;;9.30;100.00
53689;BME280;39583;54.682;30.662;2023-04-02T08:07:40;98606.66;;;9.27;100.00
53689;BME280;39583;54.682;30.662;2023-04-02T08:10:09;98618.09;;;9.34;100.00
53689;BME280;39583;54.682;30.662;2023-04-02T08:12:35;98623.13;;;9.42;100.00
53689;BME280;39583;54.682;30.662;2023-04-02T08:15:02;98629.56;;;9.53;100.00
53689;BME280;39583;54.682;30.662;2023-04-02T08:17:30;98631.31;;;9.59;100.00
53689;BME280;39583;54.682;30.662;2023-04-02T08:19:57;98634.00;;;9.70;100.00
53689;BME280;39583;54.682;30.662;2023-04-02T08:22:27;98635.97;;;9.75;99.68
53689;BME280;39583;54.682;30.662;2023-04-02T08:24:53;98636.59;;;9.77;99.39
53689;BME280;39583;54.682;30.662;2023-04-02T08:27:19;98643.94;;;9.70;98.24
53689;BME280;39583;54.682;30.662;2023-04-02T08:29:45;98647.66;;;9.45;96.82
53689;BME280;39583;54.682;30.662;2023-04-02T08:32:13;98649.47;;;9.10;95.93
53689;BME280;39583;54.682;30.662;2023-04-02T08:34:43;98656.56;;;8.93;96.46
53689;BME280;39583;54.682;30.662;2023-04-02T08:37:13;98666.06;;;8.77;96.22
53689;BME280;39583;54.682;30.662;2023-04-02T08:39:39;98665.56;;;8.68;96.32
53689;BME280;39583;54.682;30.662;2023-04-02T08:42:41;98669.38;;;8.61;96.65
53689;BME280;39583;54.682;30.662;2023-04-02T08:45:19;98674.94;;;8.47;96.25
53689;BME280;39583;54.682;30.662;2023-04-02T08:47:47;98680.94;;;8.43;96.68
53689;BME280;39583;54.682;30.662;2023-04-02T08:52:59;98687.13;;;8.25;96.37
53689;BME280;39583;54.682;30.662;2023-04-02T08:55:39;98691.81;;;8.11;96.09
53689;BME280;39583;54.682;30.662;2023-04-02T09:00:51;98703.81;;;8.09;96.75
53689;BME280;39583;54.682;30.662;2023-04-02T09:03:39;98693.50;;;8.06;96.93
53689;BME280;39583;54.682;30.662;2023-04-02T09:06:10;98709.00;;;8.04;96.40
53689;BME280;39583;54.682;30.662;2023-04-02T09:08:38;98708.25;;;7.96;95.96
53689;BME280;39583;54.682;30.662;2023-04-02T09:13:59;98718.66;;;7.61;95.33
53689;BME280;39583;54.682;30.662;2023-04-02T09:22:07;98726.63;;;7.68;95.27
53689;BME280;39583;54.682;30.662;2023-04-02T09:24:34;98720.78;;;7.53;94.37
53689;BME280;39583;54.682;30.662;2023-04-02T09:27:01;98723.16;;;7.43;94.57
53689;BME280;39583;54.682;30.662;2023-04-02T09:29:40;98719.44;;;7.44;95.27
53689;BME280;39583;54.682;30.662;2023-04-02T09:32:34;98741.84;;;7.49;95.06
53689;BME280;39583;54.682;30.662;2023-04-02T09:35:12;98743.25;;;7.52;95.29
53689;BME280;39583;54.682;30.662;2023-04-02T09:37:41;98743.91;;;7.47;94.42
53689;BME280;39583;54.682;30.662;2023-04-02T09:40:30;98745.88;;;7.33;93.97
53689;BME280;39583;54.682;30.662;2023-04-02T09:43:16;98757.78;;;7.37;94.99
53689;BME280;39583;54.682;30.662;2023-04-02T09:45:43;98768.47;;;7.44;94.47
53689;BME280;39583;54.682;30.662;2023-04-02T09:51:20;98758.13;;;7.48;93.76
53689;BME280;39583;54.682;30.662;2023-04-02T09:54:06;98760.25;;;7.64;94.51
53689;BME280;39583;54.682;30.662;2023-04-02T09:56:37;98755.47;;;7.97;94.87
53689;BME280;39583;54.682;30.662;2023-04-02T09:59:04;98768.03;;;8.22;94.55
53689;BME280;39583;54.682;30.662;2023-04-02T10:01:33;98761.53;;;8.29;93.49
53689;BME280;39583;54.682;30.662;2023-04-02T10:04:01;98773.91;;;8.31;92.93
53689;BME280;39583;54.682;30.662;2023-04-02T10:06:28;98783.13;;;8.16;91.68
53689;BME280;39583;54.682;30.662;2023-04-02T10:08:55;98786.09;;;8.08;92.13
53689;BME280;39583;54.682;30.662;2023-04-02T10:11:33;98760.66;;;7.92;91.60
53689;BME280;39583;54.682;30.662;2023-04-02T10:14:14;98788.50;;;7.91;91.30
53689;BME280;39583;54.682;30.662;2023-04-02T10:16:46;98796.63;;;7.78;90.93
53689;BME280;39583;54.682;30.662;2023-04-02T10:22:02;98800.53;;;7.82;91.44
53689;BME280;39583;54.682;30.662;2023-04-02T10:24:29;98802.41;;;7.82;91.83
53689;BME280;39583;54.682;30.662;2023-04-02T10:32:17;98815.63;;;8.26;91.39
53689;BME280;39583;54.682;30.662;2023-04-02T10:40:28;98841.63;;;8.01;90.22
53689;BME280;39583;54.682;30.662;2023-04-02T10:43:33;98831.16;;;7.93;89.53
53689;BME280;39583;54.682;30.662;2023-04-02T10:46:06;98854.78;;;7.78;88.70
53689;BME280;39583;54.682;30.662;2023-04-02T10:51:25;98856.63;;;7.77;89.29
53689;BME280;39583;54.682;30.662;2023-04-02T10:56:28;98875.97;;;7.48;87.88
53689;BME280;39583;54.682;30.662;2023-04-02T10:59:17;98882.34;;;7.53;88.49
53689;BME280;39583;54.682;30.662;2023-04-02T11:01:45;98881.22;;;7.67;88.66
53689;BME280;39583;54.682;30.662;2023-04-02T11:04:16;98885.13;;;7.72;88.22
53689;BME280;39583;54.682;30.662;2023-04-02T11:06:57;98869.00;;;7.78;88.82
53689;BME280;39583;54.682;30.662;2023-04-02T11:09:31;98891.97;;;7.99;87.73
53689;BME280;39583;54.682;30.662;2023-04-02T11:12:00;98911.66;;;7.80;86.68
53689;BME280;39583;54.682;30.662;2023-04-02T11:14:29;98914.84;;;7.63;86.49
53689;BME280;39583;54.682;30.662;2023-04-02T11:16:57;98906.94;;;7.37;86.02
53689;BME280;39583;54.682;30.662;2023-04-02T11:19:30;98918.56;;;7.18;86.17
53689;BME280;39583;54.682;30.662;2023-04-02T11:29:43;98934.44;;;7.06;86.45
53689;BME280;39583;54.682;30.662;2023-04-02T11:42:46;98963.00;;;7.25;85.88
53689;BME280;39583;54.682;30.662;2023-04-02T11:55:40;98972.13;;;7.04;85.12
53689;BME280;39583;54.682;30.662;2023-04-02T12:01:41;98976.88;;;6.89;85.34
53689;BME280;39583;54.682;30.662;2023-04-02T12:04:26;98975.03;;;6.83;84.57
53689;BME280;39583;54.682;30.662;2023-04-02T12:07:44;98996.84;;;6.73;84.37
53689;BME280;39583;54.682;30.662;2023-04-02T12:10:17;98996.06;;;6.66;84.44
53689;BME280;39583;54.682;30.662;2023-04-02T12:12:44;99003.44;;;6.58;83.54
53689;BME280;39583;54.682;30.662;2023-04-02T12:17:51;99014.75;;;6.60;84.02
53689;BME280;39583;54.682;30.662;2023-04-02T12:20:25;99011.03;;;6.47;83.11
53689;BME280;39583;54.682;30.662;2023-04-02T12:22:55;99005.25;;;6.37;83.47
53689;BME280;39583;54.682;30.662;2023-04-02T12:25:30;99005.47;;;6.36;83.62
53689;BME280;39583;54.682;30.662;2023-04-02T12:30:35;99006.53;;;6.41;83.60
53689;BME280;39583;54.682;30.662;2023-04-02T12:35:40;99010.22;;;6.40;83.01
53689;BME280;39583;54.682;30.662;2023-04-02T12:40:54;99021.03;;;5.99;82.23
53689;BME280;39583;54.682;30.662;2023-04-02T12:43:31;99023.06;;;5.90;82.41
53689;BME280;39583;54.682;30.662;2023-04-02T12:46:03;99026.91;;;5.81;82.54
53689;BME280;39583;54.682;30.662;2023-04-02T12:48:30;99023.00;;;5.84;82.88
53689;BME280;39583;54.682;30.662;2023-04-02T12:50:57;99038.41;;;5.82;82.56
53689;BME280;39583;54.682;30.662;2023-04-02T12:55:53;99036.97;;;5.79;82.65
53689;BME280;39583;54.682;30.662;2023-04-02T13:01:18;99033.47;;;5.85;82.54
53689;BME280;39583;54.682;30.662;2023-04-02T13:04:07;99035.91;;;5.74;81.95
53689;BME280;39583;54.682;30.662;2023-04-02T13:06:37;99048.88;;;5.83;82.92
53689;BME280;39583;54.682;30.662;2023-04-02T13:09:06;99043.94;;;5.80;82.44
53689;BME280;39583;54.682;30.662;2023-04-02T13:11:50;99043.72;;;5.75;82.21
53689;BME280;39583;54.682;30.662;2023-04-02T13:14:19;99056.63;;;5.72;82.53
53689;BME280;39583;54.682;30.662;2023-04-02T13:16:46;99059.28;;;5.65;82.31
53689;BME280;39583;54.682;30.662;2023-04-02T13:19:30;99073.63;;;5.57;81.97
53689;BME280;39583;54.682;30.662;2023-04-02T13:22:01;99053.06;;;5.51;82.30
53689;BME280;39583;54.682;30.662;2023-04-02T13:24:30;99041.06;;;5.34;82.18
53689;BME280;39583;54.682;30.662;2023-04-02T13:26:58;99074.00;;;5.48;82.36
53689;BME280;39583;54.682;30.662;2023-04-02T13:29:29;99070.31;;;5.49;82.00
53689;BME280;39583;54.682;30.662;2023-04-02T13:32:00;99068.25;;;5.51;82.05
53689;BME280;39583;54.682;30.662;2023-04-02T13:34:27;99061.91;;;5.52;82.03
53689;BME280;39583;54.682;30.662;2023-04-02T13:36:53;99063.94;;;5.50;82.28
53689;BME280;39583;54.682;30.662;2023-04-02T13:39:20;99068.09;;;5.59;82.50
53689;BME280;39583;54.682;30.662;2023-04-02T13:41:48;99052.53;;;5.69;82.41
53689;BME280;39583;54.682;30.662;2023-04-02T13:44:29;99058.28;;;5.66;81.91
53689;BME280;39583;54.682;30.662;2023-04-02T13:46:56;99059.91;;;5.67;81.34
53689;BME280;39583;54.682;30.662;2023-04-02T13:49:23;99083.34;;;5.65;81.02
53689;BME280;39583;54.682;30.662;2023-04-02T13:51:52;99078.75;;;5.52;80.42
53689;BME280;39583;54.682;30.662;2023-04-02T13:54:42;99083.66;;;5.49;80.86
53689;BME280;39583;54.682;30.662;2023-04-02T13:57:11;99095.38;;;5.48;80.95
53689;BME280;39583;54.682;30.662;2023-04-02T13:59:37;99093.47;;;5.42;80.80
53689;BME280;39583;54.682;30.662;2023-04-02T14:02:07;99107.63;;;5.42;80.99
53689;BME280;39583;54.682;30.662;2023-04-02T14:04:41;99110.63;;;5.32;80.77
53689;BME280;39583;54.682;30.662;2023-04-02T14:07:31;99109.97;;;5.24;80.94
53689;BME280;39583;54.682;30.662;2023-04-02T14:10:24;99119.56;;;5.18;81.22
53689;BME280;39583;54.682;30.662;2023-04-02T14:18:57;99119.63;;;5.25;81.38
53689;BME280;39583;54.682;30.662;2023-04-02T14:21:52;99130.25;;;5.18;81.62
53689;BME280;39583;54.682;30.662;2023-04-02T14:24:46;99134.13;;;5.16;81.45
53689;BME280;39583;54.682;30.662;2023-04-02T14:27:26;99111.16;;;4.93;81.73
53689;BME280;39583;54.682;30.662;2023-04-02T14:30:03;99139.78;;;5.06;81.51
53689;BME280;39583;54.682;30.662;2023-04-02T14:32:36;99140.56;;;5.00;81.30
53689;BME280;39583;54.682;30.662;2023-04-02T14:35:24;99146.41;;;4.89;81.36
53689;BME280;39583;54.682;30.662;2023-04-02T14:38:05;99137.97;;;4.85;81.42
53689;BME280;39583;54.682;30.662;2023-04-02T14:40:46;99145.41;;;4.90;81.61
53689;BME280;39583;54.682;30.662;2023-04-02T14:43:16;99147.56;;;4.80;81.52
53689;BME280;39583;54.682;30.662;2023-04-02T14:45:58;99158.59;;;4.77;81.79
53689;BME280;39583;54.682;30.662;2023-04-02T14:49:00;99156.31;;;4.73;81.91
53689;BME280;39583;54.682;30.662;2023-04-02T14:51:47;99158.09;;;4.66;81.49
53689;BME280;39583;54.682;30.662;2023-04-02T14:54:40;99154.16;;;4.62;81.62
53689;BME280;39583;54.682;30.662;2023-04-02T15:02:38;99160.88;;;4.58;81.50
53689;BME280;39583;54.682;30.662;2023-04-02T15:06:17;99164.03;;;4.47;81.13
53689;BME280;39583;54.682;30.662;2023-04-02T15:08:21;99162.69;;;4.36;81.12
53689;BME280;39583;54.682;30.662;2023-04-02T15:13:56;99176.38;;;4.33;81.82
53689;BME280;39583;54.682;30.662;2023-04-02T15:16:25;99172.31;;;4.37;81.72
53689;BME280;39583;54.682;30.662;2023-04-02T15:18:55;99179.06;;;4.33;81.65
53689;BME280;39583;54.682;30.662;2023-04-02T15:29:53;99185.78;;;4.14;81.78
53689;BME280;39583;54.682;30.662;2023-04-02T15:40:45;99208.94;;;4.14;81.94
53689;BME280;39583;54.682;30.662;2023-04-02T15:57:14;99226.38;;;3.87;81.71
53689;BME280;39583;54.682;30.662;2023-04-02T16:10:46;99239.69;;;3.72;82.33
53689;BME280;39583;54.682;30.662;2023-04-02T16:16:22;99248.22;;;3.68;82.41
53689;BME280;39583;54.682;30.662;2023-04-02T16:21:32;99260.72;;;3.67;82.49
53689;BME280;39583;54.682;30.662;2023-04-02T16:23:59;99270.72;;;3.65;82.69
53689;BME280;39583;54.682;30.662;2023-04-02T16:26:32;99271.88;;;3.63;82.76
53689;BME280;39583;54.682;30.662;2023-04-02T16:31:40;99274.72;;;3.61;82.85
53689;BME280;39583;54.682;30.662;2023-04-02T16:40:00;99296.34;;;3.66;82.52
53689;BME280;39583;54.682;30.662;2023-04-02T16:42:50;99294.31;;;3.68;82.82
53689;BME280;39583;54.682;30.662;2023-04-02T16:59:00;99308.41;;;3.31;82.83
53689;BME280;39583;54.682;30.662;2023-04-02T17:04:32;99313.53;;;3.33;83.00
53689;BME280;39583;54.682;30.662;2023-04-02T17:09:53;99320.75;;;3.24;82.62
53689;BME280;39583;54.682;30.662;2023-04-02T17:12:44;99318.44;;;3.21;82.87
53689;BME280;39583;54.682;30.662;2023-04-02T17:15:26;99315.13;;;3.19;83.00
53689;BME280;39583;54.682;30.662;2023-04-02T17:17:57;99316.59;;;3.21;83.00
53689;BME280;39583;54.682;30.662;2023-04-02T17:20:24;99330.75;;;3.22;82.95
53689;BME280;39583;54.682;30.662;2023-04-02T17:22:51;99338.91;;;3.20;83.11
53689;BME280;39583;54.682;30.662;2023-04-02T17:25:24;99341.56;;;3.20;82.95
53689;BME280;39583;54.682;30.662;2023-04-02T17:27:53;99349.19;;;3.23;83.24
53689;BME280;39583;54.682;30.662;2023-04-02T17:30:40;99350.38;;;3.21;82.84
53689;BME280;39583;54.682;30.662;2023-04-02T17:33:12;99362.84;;;3.20;82.94
53689;BME280;39583;54.682;30.662;2023-04-02T17:38:39;99370.78;;;3.29;83.16
53689;BME280;39583;54.682;30.662;2023-04-02T17:46:34;99354.13;;;3.04;82.58
53689;BME280;39583;54.682;30.662;2023-04-02T17:52:38;99388.81;;;3.18;82.25
53689;BME280;39583;54.682;30.662;2023-04-02T17:55:17;99378.53;;;3.15;82.52
53689;BME280;39583;54.682;30.662;2023-04-02T18:14:16;99333.63;;;2.81;81.82
53689;BME280;39583;54.682;30.662;2023-04-02T18:16:57;99373.59;;;3.04;81.78
53689;BME280;39583;54.682;30.662;2023-04-02T18:19:43;99381.09;;;3.01;81.45
53689;BME280;39583;54.682;30.662;2023-04-02T18:22:40;99381.47;;;2.89;81.04
